Nikishka, Alaska
Current Conditions -  °F | °C
As of 8:53 AM on Thursday 30 Oct 2014 (Local Time) from PAEN Reporting Station
Clear Clear  
Wind Chill: -6°   Ceiling: Unl
Heat Index: -6°   Visibility: 9mi
Dew Point: -8°   Wind: 3mph
Humidity: 85%   Direction: 10°N
Pressure: 29.6"   Gusts: NA
Location:  60.7377°N, 151.324°W
Report Text: PAEN 301653Z 01003KT 9SM CLR M06/M08 A2960 RMK AO2 SLP025 T10561078
Loading
Personal Weather Stations






























Interactive Weather Map
Tropical Storm Tracking
New forecast layout! Learn more

10-Day Weather Forecast

Advertisements
Track Severe Weather on mobile